Eskdalemuir, United Kingdom
Current Conditions -  °F | °C
As of 5:20 PM on Thursday 23 Oct 2014 (Local Time) from EGNC Reporting Station
Broken Clouds Broken Clouds  
Wind Chill: 57°   Ceiling: 2400
Heat Index: 57°   Visibility: 6mi
Dew Point: 54°   Wind: 12mph
Humidity: 88%   Direction: 230°SW
Pressure: 29.8"   Gusts: NA
Location:  55.27°N, 3.18°W
Report Text: EGNC 231620Z 23010KT 9999 SCT016 BKN024 14/12 Q1009
Loading
Personal Weather Stations






























Interactive Weather Map New forecast layout! Learn more

10-Day Weather Forecast

Advertisements
Track Severe Weather on mobile